Time;durP1;ratioP1;P1;durP2;ratioP2;P2;SDS_P1;SDS_P2;PMS_P1;PMS_P2;Temp;Humidity;BMP_temperature;BMP_pressure;BME280_temperature;BME280_humidity;BME280_pressure;Samples;Min_cycle;Max_cycle;Signal;HPM_P1;HPM_P2
2022/09/10 00:01:18;;;;;;;5.97;3.75;;;;;;;21.53;71.51;99472.69;4362343;32;34267;-72
2022/09/10 00:03:48;;;;;;;4.43;3.25;;;;;;;21.12;73.03;99472.06;4361466;32;33427;-74
2022/09/10 00:06:17;;;;;;;6.85;3.67;;;;;;;20.93;73.87;99472.41;4349088;32;33786;-73
2022/09/10 00:08:46;;;;;;;4.97;3.40;;;;;;;21.27;72.33;99466.06;4349580;32;34197;-72
2022/09/10 00:11:14;;;;;;;5.37;3.05;;;;;;;21.03;73.34;99472.06;4348953;32;33632;-73
2022/09/10 00:13:42;;;;;;;4.82;3.62;;;;;;;21.02;73.34;99472.41;4362405;32;34247;-73
2022/09/10 00:16:12;;;;;;;5.95;3.42;;;;;;;21.03;73.41;99476.78;4361973;32;34611;-76
2022/09/10 00:18:42;;;;;;;4.90;3.30;;;;;;;20.85;74.20;99474.03;4361886;32;34403;-73
2022/09/10 00:21:11;;;;;;;5.10;3.60;;;;;;;20.93;73.82;99466.91;4362267;32;33836;-77
2022/09/10 00:23:39;;;;;;;5.05;3.55;;;;;;;21.16;72.73;99456.47;4362084;32;33141;-78
2022/09/10 00:26:16;;;;;;;4.87;3.40;;;;;;;21.24;72.37;99452.09;4362078;32;34661;-72
2022/09/10 00:28:44;;;;;;;5.80;3.50;;;;;;;21.55;70.75;99454.63;4361811;32;34290;-74
2022/09/10 00:31:12;;;;;;;6.05;4.10;;;;;;;21.14;72.51;99457.94;4362203;32;34033;-72
2022/09/10 00:33:40;;;;;;;4.53;3.40;;;;;;;21.23;71.98;99450.47;4362270;32;34805;-76
2022/09/10 00:36:18;;;;;;;5.20;3.67;;;;;;;21.27;71.75;99445.91;4348636;32;33190;-75
2022/09/10 00:38:45;;;;;;;4.68;3.75;;;;;;;21.07;72.59;99437.19;4361410;32;34889;-77
2022/09/10 00:41:14;;;;;;;6.65;3.58;;;;;;;21.05;72.60;99435.91;4361550;32;34373;-74
2022/09/10 00:44:32;;;;;;;4.82;3.60;;;;;;;21.41;70.66;99443.81;4361921;32;33697;-76
2022/09/10 00:47:08;;;;;;;4.65;3.50;;;;;;;21.67;69.80;99449.25;4337956;32;33900;-77
2022/09/10 00:49:39;;;;;;;4.65;3.45;;;;;;;21.34;70.77;99443.50;4348296;32;33822;-78
2022/09/10 00:52:06;;;;;;;3.45;2.67;;;;;;;20.95;72.46;99448.09;4348326;32;33865;-73
2022/09/10 00:54:35;;;;;;;4.65;2.65;;;;;;;21.08;71.66;99441.56;4362361;32;33493;-72
2022/09/10 00:57:07;;;;;;;3.80;2.95;;;;;;;20.90;72.21;99445.47;4343488;32;33419;-76
2022/09/10 00:59:35;;;;;;;5.32;3.15;;;;;;;20.94;71.83;99434.63;4333659;33;34762;-78
2022/09/10 01:02:02;;;;;;;3.12;2.33;;;;;;;20.65;72.74;99439.66;4333797;33;34431;-78
2022/09/10 01:04:31;;;;;;;8.63;2.97;;;;;;;21.14;70.31;99439.44;4347153;33;33324;-72
2022/09/10 01:07:00;;;;;;;3.37;2.50;;;;;;;21.21;69.97;99438.94;4346921;32;34000;-74
2022/09/10 01:09:27;;;;;;;3.40;2.40;;;;;;;21.17;70.07;99426.97;4354990;32;35091;-72
2022/09/10 01:12:14;;;;;;;3.15;2.55;;;;;;;21.12;70.19;99430.69;4361498;32;33920;-73
2022/09/10 01:15:01;;;;;;;4.00;2.55;;;;;;;21.40;69.25;99435.81;4362074;32;33259;-76
2022/09/10 01:17:40;;;;;;;3.05;2.33;;;;;;;21.43;69.08;99435.22;4338030;32;33808;-73
2022/09/10 01:20:34;;;;;;;3.28;2.55;;;;;;;20.92;71.11;99423.09;4361947;32;34293;-77
2022/09/10 01:23:30;;;;;;;6.47;2.92;;;;;;;20.92;71.58;99423.91;4361702;32;33945;-76
2022/09/10 01:26:24;;;;;;;3.33;2.40;;;;;;;20.68;72.18;99421.66;4361396;32;33599;-76
2022/09/10 01:29:01;;;;;;;3.40;2.40;;;;;;;20.86;71.27;99423.28;4344356;32;34585;-72
2022/09/10 01:31:44;;;;;;;2.53;2.08;;;;;;;20.82;70.61;99407.69;4348240;32;33953;-72
2022/09/10 01:34:23;;;;;;;3.40;2.17;;;;;;;20.56;70.42;99400.22;4361752;32;34570;-77
2022/09/10 01:36:53;;;;;;;3.85;2.50;;;;;;;20.42;70.66;99394.03;4348573;32;33345;-73
2022/09/10 01:39:22;;;;;;;3.78;2.53;;;;;;;20.35;70.39;99394.53;4359918;32;34833;-73
2022/09/10 01:41:53;;;;;;;3.70;2.47;;;;;;;20.62;68.76;99387.91;4361735;32;35062;-77
2022/09/10 01:44:43;;;;;;;4.18;2.50;;;;;;;20.77;68.29;99388.56;4360114;32;34741;-76
2022/09/10 01:47:31;;;;;;;3.17;2.25;;;;;;;20.41;69.46;99381.38;4360190;32;34532;-75
2022/09/10 01:50:11;;;;;;;3.65;2.50;;;;;;;20.76;68.41;99367.66;4335395;32;33972;-76
2022/09/10 01:53:00;;;;;;;2.65;2.00;;;;;;;20.88;67.80;99381.56;4347973;32;35036;-76
2022/09/10 01:55:32;;;;;;;2.92;2.47;;;;;;;20.84;67.77;99397.97;4361275;32;33808;-72
2022/09/10 01:58:10;;;;;;;6.37;2.80;;;;;;;20.59;68.79;99387.75;4361129;32;34227;-76
2022/09/10 02:00:45;;;;;;;4.25;2.30;;;;;;;19.95;71.36;99369.00;4360557;32;34493;-76
2022/09/10 02:03:16;;;;;;;3.70;2.67;;;;;;;20.18;70.97;99364.22;4360860;32;35106;-73
2022/09/10 02:05:47;;;;;;;3.22;2.37;;;;;;;19.96;71.49;99351.38;4360023;32;33971;-76
2022/09/10 02:08:36;;;;;;;3.95;2.75;;;;;;;20.22;70.19;99354.16;4359518;32;34149;-72
2022/09/10 02:11:05;;;;;;;4.28;2.80;;;;;;;20.28;70.19;99361.16;4359952;32;34893;-74
2022/09/10 02:13:34;;;;;;;3.95;2.65;;;;;;;19.66;72.51;99365.66;4348145;32;34098;-74
2022/09/10 02:16:05;;;;;;;3.65;2.58;;;;;;;20.25;69.95;99362.56;4347465;32;34808;-76
2022/09/10 02:18:36;;;;;;;2.97;2.28;;;;;;;19.63;72.14;99369.06;4347692;32;34221;-74
2022/09/10 02:21:03;;;;;;;4.03;2.40;;;;;;;19.96;70.52;99367.91;4361282;32;34610;-74
2022/09/10 02:23:40;;;;;;;2.90;2.30;;;;;;;19.71;71.26;99373.00;4347510;32;34081;-76
2022/09/10 02:26:08;;;;;;;2.65;1.85;;;;;;;19.98;70.02;99369.19;4360860;32;34688;-73
2022/09/10 02:28:36;;;;;;;2.17;1.65;;;;;;;19.38;72.24;99370.56;4361125;32;34315;-75
2022/09/10 02:31:04;;;;;;;2.78;2.15;;;;;;;18.95;72.30;99360.16;4346439;32;33905;-75
2022/09/10 02:33:31;;;;;;;2.60;1.83;;;;;;;19.11;71.44;99357.00;4361095;32;33947;-71
2022/09/10 02:36:00;;;;;;;2.75;1.98;;;;;;;19.74;69.32;99357.78;4360668;32;34066;-76
2022/09/10 02:38:28;;;;;;;3.72;2.00;;;;;;;19.72;69.43;99355.38;4360709;32;34006;-74
2022/09/10 02:40:58;;;;;;;3.47;1.90;;;;;;;19.48;70.27;99355.72;4361164;32;33453;-71
2022/09/10 02:43:26;;;;;;;2.33;1.92;;;;;;;19.38;71.16;99356.81;4360753;32;35077;-74
2022/09/10 02:45:57;;;;;;;3.08;1.92;;;;;;;19.53;70.40;99350.09;4360423;32;33598;-78
2022/09/10 02:48:26;;;;;;;3.92;1.95;;;;;;;19.00;72.14;99353.72;4360408;32;33216;-72
2022/09/10 02:50:56;;;;;;;2.28;1.90;;;;;;;19.36;70.65;99356.31;4347244;32;33973;-77
2022/09/10 02:53:25;;;;;;;1.85;1.50;;;;;;;18.96;71.79;99349.97;4360729;32;33863;-75
2022/09/10 02:55:53;;;;;;;1.42;1.17;;;;;;;19.13;70.10;99350.06;4360787;32;34581;-72
2022/09/10 02:58:20;;;;;;;2.20;1.40;;;;;;;18.71;71.17;99354.16;4360358;32;33416;-77
2022/09/10 03:00:48;;;;;;;1.62;1.30;;;;;;;18.69;70.52;99357.22;4360160;32;33536;-73
2022/09/10 03:03:16;;;;;;;3.08;1.27;;;;;;;18.44;71.71;99366.84;4361535;32;35057;-71
2022/09/10 03:05:44;;;;;;;2.00;1.25;;;;;;;18.50;71.26;99359.31;4348795;32;33927;-78
2022/09/10 03:08:13;;;;;;;1.98;1.30;;;;;;;18.57;71.14;99362.44;4362705;32;33377;-76
2022/09/10 03:10:41;;;;;;;1.60;1.30;;;;;;;19.12;69.15;99361.41;4363003;32;34759;-77
2022/09/10 03:13:09;;;;;;;2.10;1.50;;;;;;;19.03;69.25;99351.16;4362863;32;34256;-77
2022/09/10 03:15:37;;;;;;;1.55;1.10;;;;;;;19.30;68.00;99354.84;4362393;32;34039;-77
2022/09/10 03:18:05;;;;;;;1.20;1.10;;;;;;;19.18;68.08;99352.69;4362405;32;33484;-73
2022/09/10 03:20:35;;;;;;;1.83;1.48;;;;;;;18.96;69.62;99353.53;4362613;32;34770;-72
2022/09/10 03:23:02;;;;;;;2.53;1.40;;;;;;;18.83;69.55;99365.41;4362751;32;34115;-77
2022/09/10 03:25:30;;;;;;;1.42;1.15;;;;;;;18.90;69.35;99348.47;4362892;32;33874;-72
2022/09/10 03:27:58;;;;;;;1.55;1.30;;;;;;;19.01;68.86;99347.09;4362291;32;33456;-77
2022/09/10 03:30:26;;;;;;;1.85;1.27;;;;;;;19.44;67.10;99358.31;4362336;32;33663;-76
2022/09/10 03:32:54;;;;;;;1.75;1.37;;;;;;;18.94;68.66;99350.31;4362605;32;34112;-72
2022/09/10 03:35:22;;;;;;;2.00;1.50;;;;;;;18.75;70.16;99353.22;4361908;32;34413;-69
2022/09/10 03:37:49;;;;;;;5.25;1.50;;;;;;;18.70;70.39;99353.31;4362077;32;33530;-73
2022/09/10 03:40:16;;;;;;;3.22;1.45;;;;;;;18.67;70.66;99344.91;4362648;32;33874;-72
2022/09/10 03:42:45;;;;;;;2.03;1.42;;;;;;;19.05;68.71;99346.16;4362021;32;35034;-71
2022/09/10 03:45:12;;;;;;;5.25;1.80;;;;;;;18.97;68.87;99346.09;4362795;32;33893;-73
2022/09/10 03:47:40;;;;;;;1.50;1.40;;;;;;;18.94;68.52;99350.31;4362323;32;33161;-74
2022/09/10 03:50:07;;;;;;;1.40;1.30;;;;;;;19.02;68.13;99340.47;4362139;32;34017;-73
2022/09/10 03:52:35;;;;;;;5.40;1.50;;;;;;;19.22;67.73;99358.34;4362306;32;34172;-74
2022/09/10 03:55:02;;;;;;;1.20;1.10;;;;;;;18.89;68.27;99347.66;4362566;32;33843;-73
2022/09/10 03:57:30;;;;;;;2.05;1.30;;;;;;;18.21;71.23;99347.63;4362279;32;33376;-73
2022/09/10 03:59:58;;;;;;;1.40;1.30;;;;;;;18.53;69.56;99348.53;4362423;32;33914;-72
2022/09/10 04:02:25;;;;;;;4.15;1.27;;;;;;;18.76;68.05;99351.28;4362079;32;34803;-73
2022/09/10 04:04:53;;;;;;;2.08;1.27;;;;;;;18.36;70.06;99346.44;4362412;32;33814;-71
2022/09/10 04:07:20;;;;;;;1.50;1.30;;;;;;;19.02;67.23;99348.72;4362348;32;34337;-71
2022/09/10 04:09:48;;;;;;;7.25;1.33;;;;;;;18.92;67.40;99354.47;4362159;32;34059;-72
2022/09/10 04:12:16;;;;;;;1.20;1.10;;;;;;;18.90;67.52;99345.72;4362462;32;35201;-73
2022/09/10 04:14:45;;;;;;;1.10;1.00;;;;;;;18.98;66.89;99344.97;4362325;32;34037;-73
2022/09/10 04:17:12;;;;;;;1.90;1.20;;;;;;;18.95;67.32;99354.66;4348537;32;33699;-72
2022/09/10 04:19:41;;;;;;;4.32;1.12;;;;;;;18.02;70.96;99356.00;4361970;32;34019;-71
2022/09/10 04:22:08;;;;;;;1.23;0.98;;;;;;;18.57;68.62;99356.94;4347137;32;34286;-70
2022/09/10 04:24:36;;;;;;;3.28;1.10;;;;;;;18.76;67.68;99363.06;4347493;33;34018;-72
2022/09/10 04:27:05;;;;;;;3.12;1.35;;;;;;;18.63;67.89;99370.25;4349013;32;33219;-74
2022/09/10 04:29:32;;;;;;;5.28;1.25;;;;;;;18.92;66.79;99371.78;4362078;32;32122;-72
2022/09/10 04:32:00;;;;;;;1.23;1.00;;;;;;;18.44;69.22;99377.84;4332781;33;33459;-72
2022/09/10 04:34:28;;;;;;;2.80;1.30;;;;;;;18.29;69.44;99373.50;4348057;32;34484;-70
2022/09/10 04:36:55;;;;;;;10.55;1.37;;;;;;;18.70;68.05;99378.06;4352570;32;34440;-71
2022/09/10 04:39:23;;;;;;;3.33;1.25;;;;;;;18.44;68.74;99372.34;4347039;33;35076;-74
2022/09/10 04:41:50;;;;;;;1.20;1.10;;;;;;;18.65;67.48;99368.00;4346365;33;34808;-71
2022/09/10 04:44:18;;;;;;;2.00;1.20;;;;;;;18.47;68.14;99363.50;4347007;32;33673;-73
2022/09/10 04:46:46;;;;;;;0.80;0.80;;;;;;;18.17;69.47;99363.09;4346296;33;33574;-71
2022/09/10 04:49:14;;;;;;;2.37;0.90;;;;;;;18.56;67.63;99369.88;4345822;33;34664;-71
2022/09/10 04:51:42;;;;;;;0.95;0.80;;;;;;;18.41;68.13;99364.75;4346694;33;34937;-82
2022/09/10 04:54:12;;;;;;;0.98;0.90;;;;;;;18.05;69.17;99362.78;4347146;33;33765;-79
2022/09/10 04:56:40;;;;;;;0.90;0.80;;;;;;;17.55;71.38;99357.22;4334082;33;33105;-77
2022/09/10 04:59:09;;;;;;;1.10;0.80;;;;;;;17.97;69.90;99358.84;4341538;32;34022;-72
2022/09/10 05:01:37;;;;;;;0.80;0.80;;;;;;;17.90;70.40;99360.37;4346648;32;33188;-81
2022/09/10 05:04:04;;;;;;;3.28;1.00;;;;;;;17.30;72.96;99364.84;4352858;32;34094;-71
2022/09/10 05:06:32;;;;;;;1.50;1.10;;;;;;;18.02;70.73;99361.47;4344614;32;33506;-80
2022/09/10 05:09:00;;;;;;;1.20;1.00;;;;;;;18.37;69.39;99366.47;4331642;33;33632;-71
2022/09/10 05:11:28;;;;;;;2.25;1.00;;;;;;;18.07;70.57;99366.03;4340698;33;33786;-74
2022/09/10 05:13:55;;;;;;;1.52;1.37;;;;;;;18.24;69.60;99360.72;4346633;32;34050;-74
2022/09/10 05:16:23;;;;;;;1.20;1.10;;;;;;;17.77;70.97;99364.72;4346564;33;34495;-79
2022/09/10 05:18:52;;;;;;;1.35;1.20;;;;;;;17.38;73.38;99366.84;4346264;33;34679;-80
2022/09/10 05:21:19;;;;;;;1.15;1.05;;;;;;;17.77;71.82;99371.03;4346838;33;34352;-72
2022/09/10 05:23:46;;;;;;;1.00;0.90;;;;;;;18.24;70.50;99366.22;4345944;32;34118;-73
2022/09/10 05:26:14;;;;;;;1.87;0.93;;;;;;;18.88;67.85;99376.28;4331871;33;33331;-72
2022/09/10 05:28:41;;;;;;;1.00;0.90;;;;;;;18.56;69.08;99382.81;4344712;33;34032;-70
2022/09/10 05:31:10;;;;;;;1.12;1.00;;;;;;;19.25;66.58;99388.78;4343296;33;33877;-71
2022/09/10 05:33:39;;;;;;;1.10;0.90;;;;;;;18.93;67.02;99376.16;4343224;32;34105;-76
2022/09/10 05:36:10;;;;;;;1.05;0.95;;;;;;;19.04;66.60;99365.72;4344676;32;33510;-77
2022/09/10 05:38:38;;;;;;;1.08;0.95;;;;;;;18.77;67.58;99374.91;4343068;32;33394;-76
2022/09/10 05:41:10;;;;;;;1.37;1.10;;;;;;;19.10;66.87;99382.91;4346638;32;33785;-76
2022/09/10 05:43:40;;;;;;;1.15;0.90;;;;;;;19.16;66.31;99382.44;4345305;32;33915;-75
2022/09/10 05:46:09;;;;;;;1.00;0.90;;;;;;;19.58;64.55;99391.22;4355608;32;33221;-74
2022/09/10 05:48:38;;;;;;;3.97;1.00;;;;;;;19.17;65.61;99397.81;4346389;32;33997;-80
2022/09/10 05:51:08;;;;;;;1.02;0.90;;;;;;;19.17;65.90;99386.00;4335133;33;35108;-78
2022/09/10 05:53:37;;;;;;;1.00;0.90;;;;;;;19.25;66.05;99390.75;4345315;32;34014;-78
2022/09/10 05:56:06;;;;;;;1.20;1.10;;;;;;;18.55;68.04;99383.91;4345628;33;34425;-76
2022/09/10 05:58:34;;;;;;;1.02;0.95;;;;;;;18.65;67.89;99384.47;4345043;32;33984;-77
2022/09/10 06:01:01;;;;;;;1.10;1.00;;;;;;;18.23;69.14;99383.00;4345202;33;34184;-75
2022/09/10 06:03:30;;;;;;;1.00;0.90;;;;;;;19.12;66.97;99386.94;4330515;33;34464;-79
2022/09/10 06:05:57;;;;;;;1.12;0.90;;;;;;;18.64;69.05;99384.81;4345671;33;33254;-79
2022/09/10 06:08:26;;;;;;;1.23;1.10;;;;;;;19.36;66.75;99388.53;4348033;32;34171;-77
2022/09/10 06:11:03;;;;;;;1.80;1.00;;;;;;;19.34;65.75;99383.34;4358231;32;34978;-76
2022/09/10 06:13:34;;;;;;;1.58;1.00;;;;;;;18.99;66.58;99379.59;4347865;32;34969;-77
2022/09/10 06:16:03;;;;;;;0.80;0.80;;;;;;;18.83;67.79;99381.91;4360505;32;32979;-73
2022/09/10 06:18:32;;;;;;;1.73;1.00;;;;;;;18.91;67.86;99380.34;4359650;32;33549;-74
2022/09/10 06:21:05;;;;;;;1.87;1.00;;;;;;;19.16;68.02;99389.88;4356940;32;34071;-72
2022/09/10 06:23:35;;;;;;;1.00;0.90;;;;;;;19.02;67.69;99378.94;4363412;32;33999;-76
2022/09/10 06:26:08;;;;;;;1.55;1.00;;;;;;;18.85;68.50;99382.41;4359653;32;33460;-75
2022/09/10 06:28:36;;;;;;;1.15;0.95;;;;;;;18.49;69.33;99379.66;4359056;32;34029;-70
2022/09/10 06:31:04;;;;;;;1.83;1.20;;;;;;;18.44;69.52;99380.59;4358451;32;33899;-76
2022/09/10 06:33:33;;;;;;;2.80;1.27;;;;;;;19.06;67.92;99377.19;4343352;32;33923;-71
2022/09/10 06:36:02;;;;;;;2.60;1.20;;;;;;;19.48;66.53;99380.47;4340010;32;34404;-71
2022/09/10 06:38:31;;;;;;;1.48;1.08;;;;;;;19.16;67.32;99385.19;4360777;32;33548;-70
2022/09/10 06:41:03;;;;;;;1.27;0.90;;;;;;;19.88;64.81;99388.75;4347617;32;33314;-72
2022/09/10 06:43:35;;;;;;;1.10;1.00;;;;;;;18.80;69.11;99380.59;4348352;32;34783;-73
2022/09/10 06:46:17;;;;;;;1.27;1.10;;;;;;;19.18;67.24;99393.09;4361367;32;33230;-73
2022/09/10 06:49:10;;;;;;;1.30;1.20;;;;;;;18.71;68.34;99382.44;4345390;32;33540;-73
2022/09/10 06:51:38;;;;;;;1.27;1.00;;;;;;;19.16;66.88;99384.37;4360828;32;34302;-72
2022/09/10 06:54:07;;;;;;;1.20;1.02;;;;;;;19.07;66.51;99392.59;4361413;32;33986;-75
2022/09/10 06:56:35;;;;;;;1.05;0.93;;;;;;;18.59;69.09;99396.72;4361705;32;34259;-74
2022/09/10 06:59:03;;;;;;;1.40;1.10;;;;;;;18.30;68.18;99396.31;4362311;32;33907;-70
2022/09/10 07:01:30;;;;;;;1.62;0.90;;;;;;;18.47;70.13;99401.97;4361477;32;33927;-70
2022/09/10 07:03:59;;;;;;;1.20;1.02;;;;;;;18.45;70.09;99402.28;4361098;32;33870;-74
2022/09/10 07:06:33;;;;;;;2.00;1.42;;;;;;;18.53;70.80;99402.66;4361313;32;33238;-76
2022/09/10 07:09:03;;;;;;;1.35;1.10;;;;;;;18.65;71.61;99408.41;4359812;32;33809;-77
2022/09/10 07:11:31;;;;;;;1.67;1.10;;;;;;;18.87;70.72;99410.38;4348716;32;34212;-76
2022/09/10 07:14:00;;;;;;;1.30;1.20;;;;;;;19.60;68.15;99421.19;4361384;32;35239;-71
2022/09/10 07:16:28;;;;;;;1.25;1.12;;;;;;;18.95;70.23;99423.38;4356500;32;33528;-75
2022/09/10 07:18:58;;;;;;;1.40;1.20;;;;;;;19.09;69.65;99433.50;4361229;32;34026;-74
2022/09/10 07:21:27;;;;;;;1.10;1.00;;;;;;;18.62;72.41;99431.03;4362216;32;34293;-75
2022/09/10 07:23:57;;;;;;;1.27;1.00;;;;;;;18.56;71.99;99430.31;4346154;32;34899;-71
2022/09/10 07:26:25;;;;;;;1.35;1.10;;;;;;;19.24;70.00;99427.59;4362440;32;34320;-72
2022/09/10 07:28:52;;;;;;;1.25;1.15;;;;;;;19.59;68.88;99430.53;4361402;32;34020;-77
2022/09/10 07:31:26;;;;;;;1.70;1.37;;;;;;;19.60;69.06;99433.00;4361810;32;34349;-71
2022/09/10 07:33:59;;;;;;;1.40;1.10;;;;;;;19.66;69.04;99431.72;4361612;32;34300;-75
2022/09/10 07:36:27;;;;;;;1.50;1.15;;;;;;;19.95;67.92;99432.34;4362106;32;34015;-74
2022/09/10 07:39:00;;;;;;;1.62;1.20;;;;;;;20.17;67.88;99434.19;4361817;32;34646;-76
2022/09/10 07:41:30;;;;;;;1.43;1.20;;;;;;;20.18;67.50;99435.81;4362257;32;35037;-73
2022/09/10 07:43:58;;;;;;;2.47;1.35;;;;;;;19.89;69.75;99439.94;4361280;32;34568;-76
2022/09/10 07:46:27;;;;;;;1.70;1.30;;;;;;;19.62;70.94;99446.44;4362353;32;33494;-76
2022/09/10 07:48:57;;;;;;;1.55;1.20;;;;;;;19.17;73.39;99449.25;4353670;32;34041;-74
2022/09/10 07:51:27;;;;;;;1.37;1.27;;;;;;;19.79;69.82;99448.50;4361656;32;34291;-75
2022/09/10 07:53:57;;;;;;;1.65;1.27;;;;;;;19.28;72.95;99447.84;4361584;32;34551;-75
2022/09/10 07:56:26;;;;;;;2.12;1.40;;;;;;;19.65;71.93;99451.28;4361461;32;33495;-74
2022/09/10 07:58:56;;;;;;;1.30;1.20;;;;;;;19.88;70.91;99450.13;4359066;32;33924;-72
2022/09/10 08:01:25;;;;;;;1.40;1.20;;;;;;;19.69;71.39;99455.03;4358367;32;34779;-75
2022/09/10 08:03:57;;;;;;;1.60;1.35;;;;;;;19.83;71.37;99457.75;4349110;32;34178;-76
2022/09/10 08:06:25;;;;;;;3.28;1.23;;;;;;;19.99;70.51;99453.41;4362704;32;33449;-74
2022/09/10 08:08:52;;;;;;;4.57;1.23;;;;;;;20.27;69.65;99450.41;4366075;32;34023;-79
2022/09/10 08:11:20;;;;;;;1.48;1.30;;;;;;;19.47;73.69;99453.16;4365160;32;34210;-79
2022/09/10 08:13:50;;;;;;;1.92;1.50;;;;;;;20.33;69.79;99460.16;4363251;32;34742;-81
2022/09/10 08:16:21;;;;;;;1.33;1.23;;;;;;;19.88;71.62;99460.34;4367256;32;33552;-83
2022/09/10 08:18:50;;;;;;;1.58;1.20;;;;;;;19.40;72.12;99461.88;4376287;32;33781;-82
2022/09/10 08:21:18;;;;;;;1.50;1.30;;;;;;;20.18;69.43;99463.38;4361211;32;33491;-78
2022/09/10 08:23:50;;;;;;;1.40;1.30;;;;;;;20.32;70.10;99463.22;4361714;32;33804;-86
2022/09/10 08:26:22;;;;;;;1.75;1.48;;;;;;;19.86;71.88;99462.59;4359201;32;34402;-77
2022/09/10 08:28:51;;;;;;;1.60;1.15;;;;;;;19.80;71.09;99459.16;4361130;32;33958;-80
2022/09/10 08:31:19;;;;;;;2.22;1.37;;;;;;;20.46;67.52;99459.22;4360722;32;33929;-81
2022/09/10 08:33:49;;;;;;;1.73;1.20;;;;;;;20.07;68.08;99454.59;4362685;32;34791;-80
2022/09/10 08:36:17;;;;;;;1.23;1.10;;;;;;;20.32;68.28;99458.53;4359899;32;32987;-78
2022/09/10 08:38:45;;;;;;;1.35;1.10;;;;;;;19.81;66.49;99457.25;4362717;32;33610;-78
2022/09/10 08:41:40;;;;;;;1.75;1.30;;;;;;;20.27;66.05;99470.50;4368023;32;34335;-76
2022/09/10 08:44:07;;;;;;;1.08;1.02;;;;;;;20.03;65.18;99465.41;4347562;32;34103;-78
2022/09/10 08:46:44;;;;;;;1.00;0.90;;;;;;;20.24;64.70;99462.91;4363407;32;33193;-78
2022/09/10 08:49:35;;;;;;;1.05;0.90;;;;;;;20.08;64.81;99464.47;4376195;32;34731;-80
2022/09/10 08:52:30;;;;;;;1.30;1.00;;;;;;;19.65;65.01;99465.91;4362642;32;34224;-80
2022/09/10 08:55:00;;;;;;;1.75;1.40;;;;;;;20.13;63.60;99472.59;4347000;33;33539;-82
2022/09/10 08:57:35;;;;;;;1.10;0.90;;;;;;;19.94;62.57;99459.06;4340782;32;33504;-79
2022/09/10 09:00:05;;;;;;;0.70;0.70;;;;;;;19.51;63.84;99461.59;4346976;32;34416;-79
2022/09/10 09:03:14;;;;;;;0.82;0.80;;;;;;;19.27;65.26;99465.50;4343713;32;35057;-81
2022/09/10 09:05:50;;;;;;;0.65;0.65;;;;;;;19.82;64.24;99473.44;4361451;32;32466;-80
2022/09/10 09:08:32;;;;;;;1.62;0.88;;;;;;;20.07;63.45;99473.88;4360263;32;33499;-83
2022/09/10 09:11:19;;;;;;;0.80;0.80;;;;;;;19.74;63.07;99471.47;4345761;33;34710;-79
2022/09/10 09:14:32;;;;;;;0.90;0.90;;;;;;;20.05;63.47;99473.38;4356849;32;33911;-82
2022/09/10 09:17:26;;;;;;;2.25;0.90;;;;;;;20.53;65.74;99472.50;4356000;32;34213;-81
2022/09/10 09:20:10;;;;;;;1.52;0.70;;;;;;;21.04;62.50;99476.47;4359549;32;33392;-75
2022/09/10 09:22:46;;;;;;;0.77;0.70;;;;;;;20.94;61.76;99473.22;4341743;32;34407;-75
2022/09/10 09:25:33;;;;;;;0.77;0.75;;;;;;;21.10;60.81;99477.94;4358781;32;34185;-75
2022/09/10 09:28:02;;;;;;;0.75;0.75;;;;;;;21.15;60.83;99474.19;4332533;32;32530;-77
2022/09/10 09:30:37;;;;;;;0.70;0.70;;;;;;;21.09;60.87;99476.28;4347602;32;32926;-76
2022/09/10 09:33:15;;;;;;;0.70;0.60;;;;;;;21.39;59.28;99470.09;4351024;32;34510;-76
2022/09/10 09:36:03;;;;;;;0.70;0.70;;;;;;;21.73;57.77;99471.97;4359573;32;34289;-75
2022/09/10 09:38:37;;;;;;;0.60;0.60;;;;;;;21.63;57.60;99464.84;4359147;32;34085;-76
2022/09/10 09:41:25;;;;;;;0.95;0.70;;;;;;;21.79;57.31;99465.16;4360736;32;34069;-75
2022/09/10 09:44:06;;;;;;;0.80;0.80;;;;;;;21.83;57.50;99471.59;4344901;32;34813;-76
2022/09/10 09:46:34;;;;;;;0.80;0.70;;;;;;;21.89;56.31;99467.50;4356899;32;35135;-77
2022/09/10 09:49:02;;;;;;;1.02;0.60;;;;;;;22.05;56.36;99459.50;4346008;33;34217;-76
2022/09/10 09:51:34;;;;;;;0.95;0.80;;;;;;;22.57;55.67;99449.28;4347563;32;33238;-79
2022/09/10 09:54:07;;;;;;;0.62;0.62;;;;;;;22.64;54.64;99455.91;4361116;32;33746;-76
2022/09/10 09:56:57;;;;;;;0.60;0.60;;;;;;;23.06;53.19;99458.66;4348852;32;34892;-74
2022/09/10 09:59:29;;;;;;;0.57;0.57;;;;;;;23.25;51.49;99454.59;4358471;32;33656;-76
2022/09/10 10:02:08;;;;;;;0.62;0.62;;;;;;;23.27;51.07;99446.78;4361179;32;33288;-77
2022/09/10 10:04:36;;;;;;;0.60;0.60;;;;;;;23.53;51.50;99449.25;4346682;32;33475;-78
2022/09/10 10:07:10;;;;;;;0.43;0.43;;;;;;;23.59;50.35;99444.31;4360998;32;34173;-76
2022/09/10 10:09:42;;;;;;;0.60;0.60;;;;;;;23.82;48.39;99439.97;4359542;32;33853;-76
2022/09/10 10:12:18;;;;;;;0.70;0.68;;;;;;;24.56;47.59;99442.75;4343493;32;33507;-78
2022/09/10 10:14:46;;;;;;;0.62;0.62;;;;;;;24.22;46.37;99439.28;4348808;32;35191;-75
2022/09/10 10:17:50;;;;;;;1.27;0.70;;;;;;;24.15;46.68;99439.88;4348147;32;34668;-75
2022/09/10 10:20:17;;;;;;;1.10;0.70;;;;;;;24.30;47.98;99443.91;4274165;33;34568;-76
2022/09/10 10:22:47;;;;;;;0.60;0.60;;;;;;;24.01;46.91;99431.09;4345503;32;34480;-75
2022/09/10 10:25:35;;;;;;;0.90;0.70;;;;;;;24.24;46.48;99428.66;4349530;32;34295;-75
2022/09/10 10:28:13;;;;;;;0.70;0.60;;;;;;;24.04;46.41;99432.34;4347964;32;32820;-78
2022/09/10 10:30:40;;;;;;;1.17;0.70;;;;;;;23.98;47.63;99425.44;4357408;32;33514;-77
2022/09/10 10:33:18;;;;;;;0.80;0.60;;;;;;;24.57;48.22;99430.47;4348502;32;33203;-78
2022/09/10 10:36:06;;;;;;;0.70;0.70;;;;;;;24.66;47.19;99424.78;4348318;32;34819;-76
2022/09/10 10:38:36;;;;;;;1.40;0.65;;;;;;;24.08;45.90;99424.97;4361180;32;34656;-76
2022/09/10 10:41:10;;;;;;;0.60;0.60;;;;;;;24.62;46.41;99413.59;4348470;32;34539;-78
2022/09/10 10:44:03;;;;;;;0.70;0.70;;;;;;;25.14;45.42;99420.19;4347974;33;34227;-77
2022/09/10 10:46:43;;;;;;;0.57;0.57;;;;;;;24.96;44.49;99425.25;4350485;32;33746;-80
2022/09/10 10:49:32;;;;;;;0.60;0.60;;;;;;;24.72;43.57;99418.62;4348460;32;34050;-77
2022/09/10 10:52:02;;;;;;;0.50;0.50;;;;;;;24.46;45.54;99426.53;4347491;32;33968;-77
2022/09/10 10:54:46;;;;;;;1.37;0.70;;;;;;;24.63;44.63;99422.72;4359436;32;34162;-77
2022/09/10 10:57:19;;;;;;;0.57;0.57;;;;;;;24.63;45.05;99420.75;4353965;32;34854;-81
2022/09/10 11:00:12;;;;;;;0.60;0.60;;;;;;;24.88;44.07;99415.09;4362233;32;34967;-76
2022/09/10 11:02:53;;;;;;;0.50;0.50;;;;;;;24.59;44.11;99419.03;4348747;32;33912;-78
2022/09/10 11:05:34;;;;;;;0.70;0.70;;;;;;;24.89;42.65;99413.97;4348939;32;34471;-78
2022/09/10 11:08:05;;;;;;;0.62;0.57;;;;;;;24.53;43.88;99416.47;4362066;32;33383;-78
2022/09/10 11:10:38;;;;;;;0.60;0.60;;;;;;;24.76;42.00;99418.75;4362255;32;36208;-76
2022/09/10 11:13:20;;;;;;;1.10;0.60;;;;;;;25.44;43.74;99428.97;4359989;32;34549;-76
2022/09/10 11:16:00;;;;;;;0.68;0.68;;;;;;;25.76;41.33;99429.78;4373676;32;33479;-76
2022/09/10 11:18:35;;;;;;;0.47;0.47;;;;;;;25.57;40.49;99436.06;4367428;32;33581;-81
2022/09/10 11:21:17;;;;;;;0.95;0.60;;;;;;;25.16;40.05;99434.53;4352258;32;34309;-78
2022/09/10 11:24:04;;;;;;;1.58;0.70;;;;;;;24.92;40.20;99425.16;4340488;32;33968;-76
2022/09/10 11:26:42;;;;;;;0.60;0.60;;;;;;;24.51;42.28;99429.09;4366714;32;33641;-76
2022/09/10 11:29:34;;;;;;;0.73;0.70;;;;;;;24.91;40.45;99429.09;4364998;32;32496;-86
2022/09/10 11:32:22;;;;;;;0.60;0.60;;;;;;;24.39;42.18;99431.88;4369409;32;35113;-78
2022/09/10 11:34:58;;;;;;;0.60;0.60;;;;;;;24.40;42.05;99425.16;4366717;32;34030;-74
2022/09/10 11:37:52;;;;;;;0.88;0.80;;;;;;;24.51;42.34;99429.09;4366097;32;33290;-74
2022/09/10 11:40:34;;;;;;;0.50;0.50;;;;;;;24.89;42.73;99423.09;4338317;32;34700;-74
2022/09/10 11:43:32;;;;;;;1.00;0.70;;;;;;;24.90;41.91;99423.88;4361721;32;34866;-76
2022/09/10 11:46:03;;;;;;;1.30;0.80;;;;;;;24.21;42.51;99414.66;4346388;32;34145;-74
2022/09/10 11:49:00;;;;;;;0.98;0.60;;;;;;;25.21;41.83;99419.63;4337612;32;33509;-77
2022/09/10 11:51:33;;;;;;;0.73;0.70;;;;;;;25.22;40.48;99407.34;4359655;32;34707;-78
2022/09/10 11:54:03;;;;;;;0.50;0.50;;;;;;;25.28;41.05;99411.50;4356997;32;35078;-78
2022/09/10 11:56:39;;;;;;;0.95;0.60;;;;;;;24.63;40.45;99406.87;4361551;32;34860;-78
2022/09/10 11:59:13;;;;;;;0.80;0.70;;;;;;;25.55;41.01;99398.69;4362075;32;34375;-72
2022/09/10 12:02:01;;;;;;;1.02;0.70;;;;;;;25.97;39.95;99410.09;4362249;32;33734;-73